GANR

Nioro du Sahel Airport

Nioro du Sahel, Mali
METAR GANR 201800Z 36004KT CAVOK 29/19 Q1013
Observed Flight Rules
Oct-20 @ 18:00 UTC (an hour ago) Visual Flight Rules
Wind Visibility Clouds
360° at 4 knots 10,000+ meters
  • Clear skies
Temperatures Readings
Current 29°C / 84°F
Dewpoint 19°C / 66°F
Humidity 55%
Altimeter 29.91" Hg
Pressure 1013 hPa
Elevation 237
METAR GANR 201800Z 36004KT CAVOK 29/19 Q1013
Observed Flight Rules
Oct-20 @ 18:00 UTC
(an hour ago)
VFR
Wind Visibility
360° at 4 knots 10,000+ meters
Clouds
  • Clear skies
Temperature Dewpoint
29°C / 84°F 19°C / 66°F
Humidity Altimeter Pressure
55% 29.91" Hg 1013 hPa